sensor_id;sensor_type;location;lat;lon;timestamp;temperature;humidity
66710;DHT22;53624;0.000;0.000;2023-02-15T00:01:12;13.40;77.50
66710;DHT22;53624;0.000;0.000;2023-02-15T00:03:39;13.30;77.40
66710;DHT22;53624;0.000;0.000;2023-02-15T00:06:07;13.30;77.50
66710;DHT22;53624;0.000;0.000;2023-02-15T00:08:35;13.30;77.50
66710;DHT22;53624;0.000;0.000;2023-02-15T00:11:06;13.30;77.50
66710;DHT22;53624;0.000;0.000;2023-02-15T00:13:33;13.30;77.60
66710;DHT22;53624;0.000;0.000;2023-02-15T00:16:02;13.30;77.60
66710;DHT22;53624;0.000;0.000;2023-02-15T00:18:31;13.20;77.60
66710;DHT22;53624;0.000;0.000;2023-02-15T00:21:02;13.20;77.60
66710;DHT22;53624;0.000;0.000;2023-02-15T00:23:30;13.20;77.60
66710;DHT22;53624;0.000;0.000;2023-02-15T00:26:07;13.20;77.60
66710;DHT22;53624;0.000;0.000;2023-02-15T00:28:34;13.20;77.70
66710;DHT22;53624;0.000;0.000;2023-02-15T00:31:02;13.10;77.70
66710;DHT22;53624;0.000;0.000;2023-02-15T00:33:32;13.10;77.70
66710;DHT22;53624;0.000;0.000;2023-02-15T00:36:00;13.10;77.70
66710;DHT22;53624;0.000;0.000;2023-02-15T00:38:27;13.10;77.70
66710;DHT22;53624;0.000;0.000;2023-02-15T00:40:55;13.10;77.60
66710;DHT22;53624;0.000;0.000;2023-02-15T00:43:23;13.10;77.70
66710;DHT22;53624;0.000;0.000;2023-02-15T00:45:50;13.10;77.70
66710;DHT22;53624;0.000;0.000;2023-02-15T00:48:18;13.00;78.10
66710;DHT22;53624;0.000;0.000;2023-02-15T00:50:48;13.00;77.80
66710;DHT22;53624;0.000;0.000;2023-02-15T00:53:16;13.00;77.70
66710;DHT22;53624;0.000;0.000;2023-02-15T00:55:43;13.00;77.80
66710;DHT22;53624;0.000;0.000;2023-02-15T00:58:11;13.00;77.80
66710;DHT22;53624;0.000;0.000;2023-02-15T01:00:39;13.00;77.80
66710;DHT22;53624;0.000;0.000;2023-02-15T01:03:07;12.90;77.80
66710;DHT22;53624;0.000;0.000;2023-02-15T01:05:36;12.90;77.80
66710;DHT22;53624;0.000;0.000;2023-02-15T01:08:05;12.90;77.90
66710;DHT22;53624;0.000;0.000;2023-02-15T01:10:33;12.90;77.90
66710;DHT22;53624;0.000;0.000;2023-02-15T01:13:00;12.90;77.90
66710;DHT22;53624;0.000;0.000;2023-02-15T01:15:28;12.90;77.90
66710;DHT22;53624;0.000;0.000;2023-02-15T01:17:55;12.80;77.90
66710;DHT22;53624;0.000;0.000;2023-02-15T01:20:24;12.80;77.90
66710;DHT22;53624;0.000;0.000;2023-02-15T01:22:51;12.80;77.90
66710;DHT22;53624;0.000;0.000;2023-02-15T01:25:21;12.80;78.00
66710;DHT22;53624;0.000;0.000;2023-02-15T01:27:49;12.80;78.00
66710;DHT22;53624;0.000;0.000;2023-02-15T01:30:16;12.70;78.00
66710;DHT22;53624;0.000;0.000;2023-02-15T01:32:44;12.70;78.00
66710;DHT22;53624;0.000;0.000;2023-02-15T01:35:11;12.70;78.00
66710;DHT22;53624;0.000;0.000;2023-02-15T01:37:39;12.70;78.10
66710;DHT22;53624;0.000;0.000;2023-02-15T01:40:07;12.70;78.10
66710;DHT22;53624;0.000;0.000;2023-02-15T01:42:37;12.70;78.10
66710;DHT22;53624;0.000;0.000;2023-02-15T01:45:05;12.70;78.20
66710;DHT22;53624;0.000;0.000;2023-02-15T01:47:41;12.60;78.10
66710;DHT22;53624;0.000;0.000;2023-02-15T01:50:12;12.60;78.10
66710;DHT22;53624;0.000;0.000;2023-02-15T01:52:43;12.60;78.20
66710;DHT22;53624;0.000;0.000;2023-02-15T01:55:13;12.60;78.20
66710;DHT22;53624;0.000;0.000;2023-02-15T01:57:43;12.60;78.20
66710;DHT22;53624;0.000;0.000;2023-02-15T02:00:13;12.60;78.20
66710;DHT22;53624;0.000;0.000;2023-02-15T02:02:42;12.50;78.20
66710;DHT22;53624;0.000;0.000;2023-02-15T02:05:11;12.50;78.20
66710;DHT22;53624;0.000;0.000;2023-02-15T02:07:40;12.50;78.20
66710;DHT22;53624;0.000;0.000;2023-02-15T02:10:09;12.50;78.20
66710;DHT22;53624;0.000;0.000;2023-02-15T02:12:37;12.50;78.20
66710;DHT22;53624;0.000;0.000;2023-02-15T02:15:10;12.50;78.30
66710;DHT22;53624;0.000;0.000;2023-02-15T02:17:42;12.50;78.30
66710;DHT22;53624;0.000;0.000;2023-02-15T02:26:12;12.40;78.30
66710;DHT22;53624;0.000;0.000;2023-02-15T02:28:57;12.40;78.30
66710;DHT22;53624;0.000;0.000;2023-02-15T02:31:37;12.40;78.30
66710;DHT22;53624;0.000;0.000;2023-02-15T02:34:14;12.30;78.30
66710;DHT22;53624;0.000;0.000;2023-02-15T02:36:44;12.40;78.30
66710;DHT22;53624;0.000;0.000;2023-02-15T02:39:20;12.30;78.30
66710;DHT22;53624;0.000;0.000;2023-02-15T02:41:52;12.30;78.30
66710;DHT22;53624;0.000;0.000;2023-02-15T02:44:23;12.30;78.40
66710;DHT22;53624;0.000;0.000;2023-02-15T02:46:54;12.30;78.30
66710;DHT22;53624;0.000;0.000;2023-02-15T02:49:33;12.30;78.40
66710;DHT22;53624;0.000;0.000;2023-02-15T02:52:02;12.30;78.30
66710;DHT22;53624;0.000;0.000;2023-02-15T02:54:32;12.20;78.30
66710;DHT22;53624;0.000;0.000;2023-02-15T02:57:02;12.20;78.40
66710;DHT22;53624;0.000;0.000;2023-02-15T02:59:31;12.20;78.40
66710;DHT22;53624;0.000;0.000;2023-02-15T03:02:01;12.20;78.50
66710;DHT22;53624;0.000;0.000;2023-02-15T03:04:31;12.20;78.50
66710;DHT22;53624;0.000;0.000;2023-02-15T03:07:02;12.20;78.50
66710;DHT22;53624;0.000;0.000;2023-02-15T03:09:33;12.20;78.50
66710;DHT22;53624;0.000;0.000;2023-02-15T03:12:07;12.10;78.50
66710;DHT22;53624;0.000;0.000;2023-02-15T03:14:39;12.10;78.60
66710;DHT22;53624;0.000;0.000;2023-02-15T03:17:07;12.10;78.60
66710;DHT22;53624;0.000;0.000;2023-02-15T03:19:36;12.10;78.60
66710;DHT22;53624;0.000;0.000;2023-02-15T03:22:07;12.10;78.60
66710;DHT22;53624;0.000;0.000;2023-02-15T03:24:37;12.10;78.60
66710;DHT22;53624;0.000;0.000;2023-02-15T03:27:07;12.10;78.60
66710;DHT22;53624;0.000;0.000;2023-02-15T03:29:37;12.10;78.70
66710;DHT22;53624;0.000;0.000;2023-02-15T03:32:07;12.10;78.70
66710;DHT22;53624;0.000;0.000;2023-02-15T03:34:37;12.00;78.60
66710;DHT22;53624;0.000;0.000;2023-02-15T03:37:05;12.00;78.70
66710;DHT22;53624;0.000;0.000;2023-02-15T03:39:39;12.00;78.70
66710;DHT22;53624;0.000;0.000;2023-02-15T03:42:10;12.00;78.80
66710;DHT22;53624;0.000;0.000;2023-02-15T03:44:41;12.00;78.80
66710;DHT22;53624;0.000;0.000;2023-02-15T03:47:11;12.00;78.80
66710;DHT22;53624;0.000;0.000;2023-02-15T03:49:42;12.00;78.80
66710;DHT22;53624;0.000;0.000;2023-02-15T03:52:11;12.00;78.80
66710;DHT22;53624;0.000;0.000;2023-02-15T03:54:42;12.00;78.80
66710;DHT22;53624;0.000;0.000;2023-02-15T03:57:13;11.90;78.80
66710;DHT22;53624;0.000;0.000;2023-02-15T03:59:58;11.90;78.70
66710;DHT22;53624;0.000;0.000;2023-02-15T04:02:45;11.90;78.80
66710;DHT22;53624;0.000;0.000;2023-02-15T04:05:15;11.90;78.80
66710;DHT22;53624;0.000;0.000;2023-02-15T04:07:43;11.90;78.80
66710;DHT22;53624;0.000;0.000;2023-02-15T04:10:12;11.90;78.80
66710;DHT22;53624;0.000;0.000;2023-02-15T04:12:56;11.90;78.80
66710;DHT22;53624;0.000;0.000;2023-02-15T04:15:24;11.80;78.80
66710;DHT22;53624;0.000;0.000;2023-02-15T04:18:08;11.80;78.90
66710;DHT22;53624;0.000;0.000;2023-02-15T04:20:36;11.80;78.80
66710;DHT22;53624;0.000;0.000;2023-02-15T04:23:21;11.80;78.90
66710;DHT22;53624;0.000;0.000;2023-02-15T04:26:07;11.80;78.80
66710;DHT22;53624;0.000;0.000;2023-02-15T04:28:34;11.80;78.80
66710;DHT22;53624;0.000;0.000;2023-02-15T04:31:02;11.70;78.80
66710;DHT22;53624;0.000;0.000;2023-02-15T04:33:29;11.70;78.80
66710;DHT22;53624;0.000;0.000;2023-02-15T04:35:57;11.70;79.00
66710;DHT22;53624;0.000;0.000;2023-02-15T04:38:24;11.70;78.90
66710;DHT22;53624;0.000;0.000;2023-02-15T04:40:52;11.70;79.00
66710;DHT22;53624;0.000;0.000;2023-02-15T04:43:21;11.70;79.00
66710;DHT22;53624;0.000;0.000;2023-02-15T04:45:48;11.60;79.00
66710;DHT22;53624;0.000;0.000;2023-02-15T04:48:16;11.60;79.00
66710;DHT22;53624;0.000;0.000;2023-02-15T04:50:44;11.60;79.00
66710;DHT22;53624;0.000;0.000;2023-02-15T04:53:11;11.60;78.90
66710;DHT22;53624;0.000;0.000;2023-02-15T04:55:39;11.60;79.00
66710;DHT22;53624;0.000;0.000;2023-02-15T04:58:06;11.60;79.00
66710;DHT22;53624;0.000;0.000;2023-02-15T05:00:35;11.60;79.00
66710;DHT22;53624;0.000;0.000;2023-02-15T05:03:03;11.60;79.10
66710;DHT22;53624;0.000;0.000;2023-02-15T05:05:31;11.60;79.10
66710;DHT22;53624;0.000;0.000;2023-02-15T05:07:58;11.50;79.10
66710;DHT22;53624;0.000;0.000;2023-02-15T05:10:26;11.50;79.10
66710;DHT22;53624;0.000;0.000;2023-02-15T05:12:53;11.50;79.10
66710;DHT22;53624;0.000;0.000;2023-02-15T05:15:21;11.50;79.10
66710;DHT22;53624;0.000;0.000;2023-02-15T05:17:50;11.50;79.10
66710;DHT22;53624;0.000;0.000;2023-02-15T05:20:18;11.50;79.20
66710;DHT22;53624;0.000;0.000;2023-02-15T05:22:45;11.50;79.20
66710;DHT22;53624;0.000;0.000;2023-02-15T05:25:13;11.50;79.20
66710;DHT22;53624;0.000;0.000;2023-02-15T05:27:58;11.40;79.20
66710;DHT22;53624;0.000;0.000;2023-02-15T05:30:43;11.40;79.20
66710;DHT22;53624;0.000;0.000;2023-02-15T05:33:11;11.40;79.20
66710;DHT22;53624;0.000;0.000;2023-02-15T05:35:39;11.40;79.20
66710;DHT22;53624;0.000;0.000;2023-02-15T05:38:06;11.40;80.00
66710;DHT22;53624;0.000;0.000;2023-02-15T05:40:34;11.40;79.30
66710;DHT22;53624;0.000;0.000;2023-02-15T05:43:02;11.40;79.30
66710;DHT22;53624;0.000;0.000;2023-02-15T05:45:29;11.40;79.30
66710;DHT22;53624;0.000;0.000;2023-02-15T05:47:57;11.30;79.20
66710;DHT22;53624;0.000;0.000;2023-02-15T05:50:26;11.30;79.30
66710;DHT22;53624;0.000;0.000;2023-02-15T05:52:54;11.30;79.30
66710;DHT22;53624;0.000;0.000;2023-02-15T05:55:21;11.30;79.40
66710;DHT22;53624;0.000;0.000;2023-02-15T05:57:49;11.30;79.40
66710;DHT22;53624;0.000;0.000;2023-02-15T06:00:16;11.30;79.50
66710;DHT22;53624;0.000;0.000;2023-02-15T06:02:44;11.30;79.50
66710;DHT22;53624;0.000;0.000;2023-02-15T06:05:11;11.20;79.50
66710;DHT22;53624;0.000;0.000;2023-02-15T06:07:40;11.20;79.40
66710;DHT22;53624;0.000;0.000;2023-02-15T06:10:09;11.20;80.20
66710;DHT22;53624;0.000;0.000;2023-02-15T06:12:37;11.20;79.50
66710;DHT22;53624;0.000;0.000;2023-02-15T06:15:05;11.20;79.50
66710;DHT22;53624;0.000;0.000;2023-02-15T06:17:33;11.20;79.60
66710;DHT22;53624;0.000;0.000;2023-02-15T06:20:00;11.20;79.60
66710;DHT22;53624;0.000;0.000;2023-02-15T06:22:28;11.20;79.60
66710;DHT22;53624;0.000;0.000;2023-02-15T06:24:57;11.20;79.60
66710;DHT22;53624;0.000;0.000;2023-02-15T06:27:25;11.10;79.50
66710;DHT22;53624;0.000;0.000;2023-02-15T06:29:52;11.10;79.60
66710;DHT22;53624;0.000;0.000;2023-02-15T06:32:20;11.10;79.60
66710;DHT22;53624;0.000;0.000;2023-02-15T06:34:47;11.10;79.60
66710;DHT22;53624;0.000;0.000;2023-02-15T06:37:15;11.10;79.70
66710;DHT22;53624;0.000;0.000;2023-02-15T06:39:42;11.10;79.70
66710;DHT22;53624;0.000;0.000;2023-02-15T06:42:11;11.10;79.70
66710;DHT22;53624;0.000;0.000;2023-02-15T06:44:39;11.10;79.70
66710;DHT22;53624;0.000;0.000;2023-02-15T06:47:06;11.10;79.70
66710;DHT22;53624;0.000;0.000;2023-02-15T06:49:34;11.10;79.80
66710;DHT22;53624;0.000;0.000;2023-02-15T06:52:01;11.10;79.80
66710;DHT22;53624;0.000;0.000;2023-02-15T06:54:29;11.10;79.90
66710;DHT22;53624;0.000;0.000;2023-02-15T06:56:56;11.10;79.90
66710;DHT22;53624;0.000;0.000;2023-02-15T06:59:25;11.10;80.00
66710;DHT22;53624;0.000;0.000;2023-02-15T07:01:53;11.10;79.90
66710;DHT22;53624;0.000;0.000;2023-02-15T07:04:20;11.10;80.00
66710;DHT22;53624;0.000;0.000;2023-02-15T07:06:48;11.10;80.10
66710;DHT22;53624;0.000;0.000;2023-02-15T07:09:15;11.10;80.10
66710;DHT22;53624;0.000;0.000;2023-02-15T07:11:43;11.10;80.20
66710;DHT22;53624;0.000;0.000;2023-02-15T07:14:29;11.10;80.20
66710;DHT22;53624;0.000;0.000;2023-02-15T07:16:56;11.10;80.30
66710;DHT22;53624;0.000;0.000;2023-02-15T07:19:24;11.10;80.30
66710;DHT22;53624;0.000;0.000;2023-02-15T07:21:51;11.10;80.40
66710;DHT22;53624;0.000;0.000;2023-02-15T07:24:19;11.10;80.40
66710;DHT22;53624;0.000;0.000;2023-02-15T07:26:46;11.10;80.40
66710;DHT22;53624;0.000;0.000;2023-02-15T07:29:14;11.10;80.50
66710;DHT22;53624;0.000;0.000;2023-02-15T07:31:43;11.10;80.50
66710;DHT22;53624;0.000;0.000;2023-02-15T07:34:11;11.20;80.60
66710;DHT22;53624;0.000;0.000;2023-02-15T07:36:39;11.20;80.60
66710;DHT22;53624;0.000;0.000;2023-02-15T07:39:06;11.20;80.60
66710;DHT22;53624;0.000;0.000;2023-02-15T07:41:34;11.20;80.70
66710;DHT22;53624;0.000;0.000;2023-02-15T07:44:04;11.20;80.70
66710;DHT22;53624;0.000;0.000;2023-02-15T07:46:31;11.20;80.70
66710;DHT22;53624;0.000;0.000;2023-02-15T07:49:00;11.20;80.70
66710;DHT22;53624;0.000;0.000;2023-02-15T07:51:28;11.20;80.70
66710;DHT22;53624;0.000;0.000;2023-02-15T07:53:55;11.20;80.70
66710;DHT22;53624;0.000;0.000;2023-02-15T07:56:23;11.20;80.80
66710;DHT22;53624;0.000;0.000;2023-02-15T07:58:50;11.20;80.80
66710;DHT22;53624;0.000;0.000;2023-02-15T08:01:18;11.30;80.80
66710;DHT22;53624;0.000;0.000;2023-02-15T08:03:46;11.30;80.80
66710;DHT22;53624;0.000;0.000;2023-02-15T08:06:15;11.30;80.90
66710;DHT22;53624;0.000;0.000;2023-02-15T08:08:43;11.30;81.00
66710;DHT22;53624;0.000;0.000;2023-02-15T08:11:15;11.30;81.00
66710;DHT22;53624;0.000;0.000;2023-02-15T08:14:00;11.30;81.00
66710;DHT22;53624;0.000;0.000;2023-02-15T08:16:30;11.30;81.00
66710;DHT22;53624;0.000;0.000;2023-02-15T08:18:59;11.30;81.00
66710;DHT22;53624;0.000;0.000;2023-02-15T08:21:28;11.40;81.10
66710;DHT22;53624;0.000;0.000;2023-02-15T08:23:56;11.40;81.10
66710;DHT22;53624;0.000;0.000;2023-02-15T08:26:24;11.40;81.10
66710;DHT22;53624;0.000;0.000;2023-02-15T08:28:53;11.40;81.10
66710;DHT22;53624;0.000;0.000;2023-02-15T08:31:20;11.40;81.10
66710;DHT22;53624;0.000;0.000;2023-02-15T08:33:48;11.40;81.10
66710;DHT22;53624;0.000;0.000;2023-02-15T08:36:17;11.50;81.10
66710;DHT22;53624;0.000;0.000;2023-02-15T08:38:46;11.50;81.10
66710;DHT22;53624;0.000;0.000;2023-02-15T08:41:15;11.50;81.10
66710;DHT22;53624;0.000;0.000;2023-02-15T08:43:43;11.50;81.00
66710;DHT22;53624;0.000;0.000;2023-02-15T08:46:11;11.50;81.10
66710;DHT22;53624;0.000;0.000;2023-02-15T08:48:38;11.50;81.10
66710;DHT22;53624;0.000;0.000;2023-02-15T08:51:07;11.50;81.10
66710;DHT22;53624;0.000;0.000;2023-02-15T08:53:36;11.60;81.20
66710;DHT22;53624;0.000;0.000;2023-02-15T08:56:06;11.60;81.10
66710;DHT22;53624;0.000;0.000;2023-02-15T08:58:34;11.60;81.10
66710;DHT22;53624;0.000;0.000;2023-02-15T09:01:07;11.60;81.00
66710;DHT22;53624;0.000;0.000;2023-02-15T09:03:35;11.60;81.00
66710;DHT22;53624;0.000;0.000;2023-02-15T09:06:02;11.70;81.00
66710;DHT22;53624;0.000;0.000;2023-02-15T09:08:30;11.70;81.10
66710;DHT22;53624;0.000;0.000;2023-02-15T09:11:05;11.80;81.10
66710;DHT22;53624;0.000;0.000;2023-02-15T09:13:33;11.80;81.10
66710;DHT22;53624;0.000;0.000;2023-02-15T09:16:01;11.80;81.10
66710;DHT22;53624;0.000;0.000;2023-02-15T09:18:29;11.80;81.10
66710;DHT22;53624;0.000;0.000;2023-02-15T09:20:56;11.80;81.10
66710;DHT22;53624;0.000;0.000;2023-02-15T09:23:24;11.80;81.00
66710;DHT22;53624;0.000;0.000;2023-02-15T09:25:51;11.90;81.10
66710;DHT22;53624;0.000;0.000;2023-02-15T09:28:20;11.90;81.00
66710;DHT22;53624;0.000;0.000;2023-02-15T09:30:48;11.90;81.00
66710;DHT22;53624;0.000;0.000;2023-02-15T09:33:15;11.90;81.00
66710;DHT22;53624;0.000;0.000;2023-02-15T09:35:43;12.00;81.10
66710;DHT22;53624;0.000;0.000;2023-02-15T09:38:10;12.00;81.10
66710;DHT22;53624;0.000;0.000;2023-02-15T09:40:40;12.00;81.00
66710;DHT22;53624;0.000;0.000;2023-02-15T09:43:27;12.10;81.10
66710;DHT22;53624;0.000;0.000;2023-02-15T09:46:04;12.10;81.00
66710;DHT22;53624;0.000;0.000;2023-02-15T09:48:39;12.10;81.00
66710;DHT22;53624;0.000;0.000;2023-02-15T09:54:08;12.20;80.90
66710;DHT22;53624;0.000;0.000;2023-02-15T09:56:38;12.30;81.00
66710;DHT22;53624;0.000;0.000;2023-02-15T09:59:09;12.30;81.00
66710;DHT22;53624;0.000;0.000;2023-02-15T10:01:41;12.40;81.00
66710;DHT22;53624;0.000;0.000;2023-02-15T10:04:17;12.40;81.00
66710;DHT22;53624;0.000;0.000;2023-02-15T10:06:48;12.40;81.00
66710;DHT22;53624;0.000;0.000;2023-02-15T10:09:24;12.40;81.00
66710;DHT22;53624;0.000;0.000;2023-02-15T10:12:02;12.50;81.10
66710;DHT22;53624;0.000;0.000;2023-02-15T10:14:43;12.50;81.10
66710;DHT22;53624;0.000;0.000;2023-02-15T10:17:28;12.60;81.10
66710;DHT22;53624;0.000;0.000;2023-02-15T10:20:01;12.70;81.00
66710;DHT22;53624;0.000;0.000;2023-02-15T10:22:38;12.90;80.80
66710;DHT22;53624;0.000;0.000;2023-02-15T10:25:19;13.30;80.20
66710;DHT22;53624;0.000;0.000;2023-02-15T10:27:49;13.70;79.50
66710;DHT22;53624;0.000;0.000;2023-02-15T10:30:19;14.10;78.80
66710;DHT22;53624;0.000;0.000;2023-02-15T10:32:52;14.40;78.20
66710;DHT22;53624;0.000;0.000;2023-02-15T10:35:23;14.60;78.00
66710;DHT22;53624;0.000;0.000;2023-02-15T10:37:55;14.70;78.00
66710;DHT22;53624;0.000;0.000;2023-02-15T10:40:28;15.00;77.70
66710;DHT22;53624;0.000;0.000;2023-02-15T10:43:08;15.30;77.40
66710;DHT22;53624;0.000;0.000;2023-02-15T10:45:43;15.50;77.10
66710;DHT22;53624;0.000;0.000;2023-02-15T10:51:01;16.10;76.60
66710;DHT22;53624;0.000;0.000;2023-02-15T10:53:36;16.30;76.20
66710;DHT22;53624;0.000;0.000;2023-02-15T10:56:10;16.50;76.10
66710;DHT22;53624;0.000;0.000;2023-02-15T10:58:45;16.80;75.70
66710;DHT22;53624;0.000;0.000;2023-02-15T11:01:17;17.00;75.50
66710;DHT22;53624;0.000;0.000;2023-02-15T11:03:51;17.20;75.20
66710;DHT22;53624;0.000;0.000;2023-02-15T11:06:20;17.50;75.00
66710;DHT22;53624;0.000;0.000;2023-02-15T11:08:49;17.70;74.70
66710;DHT22;53624;0.000;0.000;2023-02-15T11:11:19;18.00;74.30
66710;DHT22;53624;0.000;0.000;2023-02-15T11:13:49;18.30;74.10
66710;DHT22;53624;0.000;0.000;2023-02-15T11:16:20;18.60;73.60
66710;DHT22;53624;0.000;0.000;2023-02-15T11:18:51;19.10;72.80
66710;DHT22;53624;0.000;0.000;2023-02-15T11:21:21;19.90;71.40
66710;DHT22;53624;0.000;0.000;2023-02-15T11:23:50;20.80;69.70
66710;DHT22;53624;0.000;0.000;2023-02-15T11:26:19;21.40;68.30
66710;DHT22;53624;0.000;0.000;2023-02-15T11:28:49;22.10;66.90
66710;DHT22;53624;0.000;0.000;2023-02-15T11:31:21;22.70;65.70
66710;DHT22;53624;0.000;0.000;2023-02-15T11:33:50;23.30;64.80
66710;DHT22;53624;0.000;0.000;2023-02-15T11:36:19;23.60;63.90
66710;DHT22;53624;0.000;0.000;2023-02-15T11:38:49;24.00;63.50
66710;DHT22;53624;0.000;0.000;2023-02-15T11:41:18;24.20;63.10
66710;DHT22;53624;0.000;0.000;2023-02-15T11:43:50;24.40;62.80
66710;DHT22;53624;0.000;0.000;2023-02-15T11:46:21;24.60;62.60
66710;DHT22;53624;0.000;0.000;2023-02-15T11:48:49;24.60;62.50
66710;DHT22;53624;0.000;0.000;2023-02-15T11:51:17;24.20;62.90
66710;DHT22;53624;0.000;0.000;2023-02-15T11:53:47;23.70;64.40
66710;DHT22;53624;0.000;0.000;2023-02-15T11:56:15;23.40;65.60
66710;DHT22;53624;0.000;0.000;2023-02-15T11:58:44;23.60;65.90
66710;DHT22;53624;0.000;0.000;2023-02-15T12:01:15;24.20;65.00
66710;DHT22;53624;0.000;0.000;2023-02-15T12:03:46;24.90;63.80
66710;DHT22;53624;0.000;0.000;2023-02-15T12:06:20;25.40;62.90
66710;DHT22;53624;0.000;0.000;2023-02-15T12:08:50;25.70;62.40
66710;DHT22;53624;0.000;0.000;2023-02-15T12:11:19;25.90;62.10
66710;DHT22;53624;0.000;0.000;2023-02-15T12:13:53;26.10;61.90
66710;DHT22;53624;0.000;0.000;2023-02-15T12:16:21;26.10;61.60
66710;DHT22;53624;0.000;0.000;2023-02-15T12:18:50;25.70;60.50
66710;DHT22;53624;0.000;0.000;2023-02-15T12:21:24;25.20;61.00
66710;DHT22;53624;0.000;0.000;2023-02-15T12:23:53;24.90;61.60
66710;DHT22;53624;0.000;0.000;2023-02-15T12:26:24;25.10;61.60
66710;DHT22;53624;0.000;0.000;2023-02-15T12:28:52;25.20;61.20
66710;DHT22;53624;0.000;0.000;2023-02-15T12:31:21;25.20;61.10
66710;DHT22;53624;0.000;0.000;2023-02-15T12:33:51;25.30;61.10
66710;DHT22;53624;0.000;0.000;2023-02-15T12:36:20;25.10;61.90
66710;DHT22;53624;0.000;0.000;2023-02-15T12:39:05;24.90;62.30
66710;DHT22;53624;0.000;0.000;2023-02-15T12:41:43;24.90;62.90
66710;DHT22;53624;0.000;0.000;2023-02-15T12:44:15;24.80;63.60
66710;DHT22;53624;0.000;0.000;2023-02-15T12:46:50;24.70;63.70
66710;DHT22;53624;0.000;0.000;2023-02-15T12:49:25;24.90;64.30
66710;DHT22;53624;0.000;0.000;2023-02-15T12:51:53;24.80;64.70
66710;DHT22;53624;0.000;0.000;2023-02-15T12:54:32;24.60;64.80
66710;DHT22;53624;0.000;0.000;2023-02-15T12:59:50;24.40;65.60
66710;DHT22;53624;0.000;0.000;2023-02-15T13:02:20;24.00;66.00
66710;DHT22;53624;0.000;0.000;2023-02-15T13:04:50;23.70;67.00
66710;DHT22;53624;0.000;0.000;2023-02-15T13:07:18;23.20;68.20
66710;DHT22;53624;0.000;0.000;2023-02-15T13:09:46;22.90;68.80
66710;DHT22;53624;0.000;0.000;2023-02-15T13:12:21;22.90;69.30
66710;DHT22;53624;0.000;0.000;2023-02-15T13:14:49;23.00;69.00
66710;DHT22;53624;0.000;0.000;2023-02-15T13:17:18;22.70;69.20
66710;DHT22;53624;0.000;0.000;2023-02-15T13:19:51;22.40;70.40
66710;DHT22;53624;0.000;0.000;2023-02-15T13:22:21;22.20;70.70
66710;DHT22;53624;0.000;0.000;2023-02-15T13:24:50;22.00;71.20
66710;DHT22;53624;0.000;0.000;2023-02-15T13:27:20;21.70;72.00
66710;DHT22;53624;0.000;0.000;2023-02-15T13:29:49;21.30;73.10
66710;DHT22;53624;0.000;0.000;2023-02-15T13:32:21;20.90;74.10
66710;DHT22;53624;0.000;0.000;2023-02-15T13:34:51;20.80;74.80
66710;DHT22;53624;0.000;0.000;2023-02-15T13:37:23;20.80;74.70
66710;DHT22;53624;0.000;0.000;2023-02-15T13:39:57;21.00;74.30
66710;DHT22;53624;0.000;0.000;2023-02-15T13:42:27;21.00;74.40
66710;DHT22;53624;0.000;0.000;2023-02-15T13:45:07;20.80;74.80
66710;DHT22;53624;0.000;0.000;2023-02-15T13:47:38;20.50;75.40
66710;DHT22;53624;0.000;0.000;2023-02-15T13:50:15;20.10;76.30
66710;DHT22;53624;0.000;0.000;2023-02-15T13:52:49;19.80;77.30
66710;DHT22;53624;0.000;0.000;2023-02-15T13:55:26;19.60;77.70
66710;DHT22;53624;0.000;0.000;2023-02-15T14:00:47;19.40;78.00
66710;DHT22;53624;0.000;0.000;2023-02-15T14:06:07;19.20;78.90
66710;DHT22;53624;0.000;0.000;2023-02-15T14:08:43;19.30;79.50
66710;DHT22;53624;0.000;0.000;2023-02-15T14:11:14;19.40;79.60
66710;DHT22;53624;0.000;0.000;2023-02-15T14:13:47;19.50;79.20
66710;DHT22;53624;0.000;0.000;2023-02-15T14:16:18;19.50;78.70
66710;DHT22;53624;0.000;0.000;2023-02-15T14:18:48;19.60;78.30
66710;DHT22;53624;0.000;0.000;2023-02-15T14:21:19;19.60;78.70
66710;DHT22;53624;0.000;0.000;2023-02-15T14:23:52;19.60;77.70
66710;DHT22;53624;0.000;0.000;2023-02-15T14:26:26;19.80;77.30
66710;DHT22;53624;0.000;0.000;2023-02-15T14:29:03;19.90;76.90
66710;DHT22;53624;0.000;0.000;2023-02-15T14:31:33;19.90;76.50
66710;DHT22;53624;0.000;0.000;2023-02-15T14:34:02;19.80;76.60
66710;DHT22;53624;0.000;0.000;2023-02-15T14:36:31;19.70;76.70
66710;DHT22;53624;0.000;0.000;2023-02-15T14:39:01;19.60;76.80
66710;DHT22;53624;0.000;0.000;2023-02-15T14:41:31;19.60;77.10
66710;DHT22;53624;0.000;0.000;2023-02-15T14:44:01;19.50;76.50
66710;DHT22;53624;0.000;0.000;2023-02-15T14:46:31;19.50;76.70
66710;DHT22;53624;0.000;0.000;2023-02-15T14:49:03;19.50;76.80
66710;DHT22;53624;0.000;0.000;2023-02-15T14:59:45;19.40;76.50
66710;DHT22;53624;0.000;0.000;2023-02-15T15:02:15;19.30;76.50
66710;DHT22;53624;0.000;0.000;2023-02-15T15:04:45;19.30;76.60
66710;DHT22;53624;0.000;0.000;2023-02-15T15:07:22;19.20;76.60
66710;DHT22;53624;0.000;0.000;2023-02-15T15:09:57;19.20;76.70
66710;DHT22;53624;0.000;0.000;2023-02-15T15:12:39;19.10;76.70
66710;DHT22;53624;0.000;0.000;2023-02-15T15:15:10;19.00;76.80
66710;DHT22;53624;0.000;0.000;2023-02-15T15:17:55;19.00;76.70
66710;DHT22;53624;0.000;0.000;2023-02-15T15:25:56;18.80;77.30
66710;DHT22;53624;0.000;0.000;2023-02-15T15:31:14;18.70;77.40
66710;DHT22;53624;0.000;0.000;2023-02-15T15:34:05;18.60;77.70
66710;DHT22;53624;0.000;0.000;2023-02-15T15:39:39;18.50;77.90
66710;DHT22;53624;0.000;0.000;2023-02-15T15:42:12;18.40;78.00
66710;DHT22;53624;0.000;0.000;2023-02-15T15:44:53;18.30;78.20
66710;DHT22;53624;0.000;0.000;2023-02-15T15:50:12;18.20;78.40
66710;DHT22;53624;0.000;0.000;2023-02-15T15:52:41;18.10;78.40
66710;DHT22;53624;0.000;0.000;2023-02-15T15:55:14;18.10;78.50
66710;DHT22;53624;0.000;0.000;2023-02-15T15:57:43;18.00;78.50
66710;DHT22;53624;0.000;0.000;2023-02-15T16:00:22;17.90;78.40
66710;DHT22;53624;0.000;0.000;2023-02-15T16:02:51;17.80;78.60
66710;DHT22;53624;0.000;0.000;2023-02-15T16:05:20;17.90;78.70
66710;DHT22;53624;0.000;0.000;2023-02-15T16:07:48;17.80;78.70
66710;DHT22;53624;0.000;0.000;2023-02-15T16:10:20;17.70;78.70
66710;DHT22;53624;0.000;0.000;2023-02-15T16:12:48;17.70;78.80
66710;DHT22;53624;0.000;0.000;2023-02-15T16:15:17;17.60;79.50
66710;DHT22;53624;0.000;0.000;2023-02-15T16:17:45;17.60;78.90
66710;DHT22;53624;0.000;0.000;2023-02-15T16:20:15;17.50;78.80
66710;DHT22;53624;0.000;0.000;2023-02-15T16:22:46;17.50;79.00
66710;DHT22;53624;0.000;0.000;2023-02-15T16:25:29;17.40;79.00
66710;DHT22;53624;0.000;0.000;2023-02-15T16:28:05;17.40;79.10
66710;DHT22;53624;0.000;0.000;2023-02-15T16:30:34;17.30;79.20
66710;DHT22;53624;0.000;0.000;2023-02-15T16:33:06;17.30;79.30
66710;DHT22;53624;0.000;0.000;2023-02-15T16:35:35;17.20;79.30
66710;DHT22;53624;0.000;0.000;2023-02-15T16:38:04;17.10;79.50
66710;DHT22;53624;0.000;0.000;2023-02-15T16:40:37;17.10;79.50
66710;DHT22;53624;0.000;0.000;2023-02-15T16:43:06;17.10;79.60
66710;DHT22;53624;0.000;0.000;2023-02-15T16:45:37;17.00;79.70
66710;DHT22;53624;0.000;0.000;2023-02-15T16:48:05;16.90;79.70